Terminal Aerodrome Forecast
Issued by NWS

Home | Current Version | Previous Version | Text Only | Print | Product List | Glossary On
Versions: 1 2 3 4 5 6 7 8 9 10 11 12 13 14 15 16 17 18 19 20 21 22 23 24 25 26 27
115
FTUS46 KSEW 272320
TAFHQM
TAF
KHQM 272320Z 2800/2824 23014KT P6SM SCT003
      TEMPO 2803/2807 3SM BR BKN003
     FM280700 VRB03KT 2SM BR OVC002
      TEMPO 2810/2814 1/2SM FG VV001
     FM281700 30007KT P6SM SKC=

USA.gov is the U.S. government's official web portal to all federal, state and local government web resources and services.